Time;durP1;ratioP1;P1;durP2;ratioP2;P2;SDS_P1;SDS_P2;PMS_P1;PMS_P2;Temp;Humidity;BMP_temperature;BMP_pressure;BME280_temperature;BME280_humidity;BME280_pressure;Samples;Min_cycle;Max_cycle;Signal;HPM_P1;HPM_P2
2021/06/07 00:00:45;;;;;;;1999.90;999.90;;;16.10;99.90;;;;;;5073354;28;20182;-78
2021/06/07 00:03:11;;;;;;;1999.90;999.90;;;16.10;99.90;;;;;;5073371;28;20216;-78
2021/06/07 00:05:37;;;;;;;1999.90;999.90;;;16.10;99.90;;;;;;5073458;28;20656;-78
2021/06/07 00:08:02;;;;;;;1999.90;999.90;;;16.10;99.90;;;;;;5073347;28;20257;-78
2021/06/07 00:10:28;;;;;;;1999.90;999.90;;;16.10;99.90;;;;;;5073421;28;20204;-78
2021/06/07 00:12:54;;;;;;;1999.90;999.90;;;16.10;99.90;;;;;;5071968;28;20205;-77
2021/06/07 00:15:23;;;;;;;1999.90;999.90;;;16.10;99.90;;;;;;5071353;28;20194;-79
2021/06/07 00:17:49;;;;;;;1999.90;999.90;;;16.10;99.90;;;;;;5071336;28;20216;-77
2021/06/07 00:20:25;;;;;;;1999.90;999.90;;;16.10;99.90;;;;;;5073567;28;20208;-77
2021/06/07 00:22:51;;;;;;;1999.90;999.90;;;16.10;99.90;;;;;;5071209;28;20222;-77
2021/06/07 00:25:17;;;;;;;1999.90;999.90;;;16.10;99.90;;;;;;5072581;28;20182;-77
2021/06/07 00:27:42;;;;;;;1999.90;999.90;;;16.10;99.90;;;;;;5071370;28;20170;-77
2021/06/07 00:30:09;;;;;;;1999.90;999.90;;;16.10;99.90;;;;;;5071304;28;20600;-77
2021/06/07 00:32:34;;;;;;;1999.90;999.90;;;16.10;99.90;;;;;;5072322;28;20247;-77
2021/06/07 00:35:00;;;;;;;1999.90;999.90;;;16.10;99.90;;;;;;5073078;28;20171;-78
2021/06/07 00:37:26;;;;;;;1999.90;999.90;;;16.10;99.90;;;;;;5073100;28;20602;-77
2021/06/07 00:39:51;;;;;;;1999.90;999.90;;;16.00;99.90;;;;;;5072584;28;20176;-77
2021/06/07 00:42:17;;;;;;;1999.90;999.90;;;16.00;99.90;;;;;;5073084;28;20226;-77
2021/06/07 00:44:45;;;;;;;1999.90;999.90;;;16.00;99.90;;;;;;5072914;28;20169;-77
2021/06/07 00:47:11;;;;;;;1999.90;999.90;;;16.10;99.90;;;;;;5076962;28;20180;-77
2021/06/07 00:49:37;;;;;;;1999.90;999.90;;;16.00;99.90;;;;;;5076246;28;20173;-78
2021/06/07 00:52:03;;;;;;;1999.90;999.90;;;16.00;99.90;;;;;;5076634;28;20280;-77
2021/06/07 00:54:29;;;;;;;1999.90;999.90;;;16.00;99.90;;;;;;5076519;28;20178;-77
2021/06/07 00:56:54;;;;;;;1999.90;999.90;;;16.00;99.90;;;;;;5076913;28;20576;-77
2021/06/07 00:59:20;;;;;;;1999.90;999.90;;;16.00;99.90;;;;;;5076469;28;20224;-77
2021/06/07 01:01:46;;;;;;;1999.90;999.90;;;16.00;99.90;;;;;;5075384;28;20171;-77
2021/06/07 01:04:11;;;;;;;1999.90;999.90;;;16.00;99.90;;;;;;5076415;28;20200;-77
2021/06/07 01:06:37;;;;;;;1999.90;999.90;;;16.00;99.90;;;;;;5074954;28;20208;-78
2021/06/07 01:09:05;;;;;;;1999.90;999.90;;;16.00;99.90;;;;;;5076301;28;20197;-77
2021/06/07 01:11:32;;;;;;;1999.90;999.90;;;16.00;99.90;;;;;;5074448;28;20195;-77
2021/06/07 01:13:58;;;;;;;1999.90;999.90;;;16.00;99.90;;;;;;5075675;28;20189;-77
2021/06/07 01:16:24;;;;;;;1999.90;999.90;;;16.00;99.90;;;;;;5075468;28;20196;-77
2021/06/07 01:18:50;;;;;;;1999.90;999.90;;;16.00;99.90;;;;;;5076135;28;20219;-78
2021/06/07 01:21:23;;;;;;;1999.90;999.90;;;16.00;99.90;;;;;;5055552;28;20186;-78
2021/06/07 01:23:49;;;;;;;1999.90;999.90;;;16.00;99.90;;;;;;5074597;28;20203;-77
2021/06/07 01:26:18;;;;;;;1999.90;999.90;;;16.00;99.90;;;;;;5076443;28;20192;-78
2021/06/07 01:28:44;;;;;;;1999.90;999.90;;;16.00;99.90;;;;;;5076168;28;20197;-78
2021/06/07 01:31:12;;;;;;;1999.90;999.90;;;16.00;99.90;;;;;;5074850;28;20231;-77
2021/06/07 01:33:43;;;;;;;1999.90;999.90;;;16.00;99.90;;;;;;5073975;28;20232;-77
2021/06/07 01:36:10;;;;;;;1999.90;999.90;;;16.00;99.90;;;;;;5074250;28;20196;-77
2021/06/07 01:38:36;;;;;;;1999.90;999.90;;;16.00;99.90;;;;;;5073745;28;20177;-77
2021/06/07 01:41:08;;;;;;;1999.90;999.90;;;16.00;99.90;;;;;;5074962;28;20173;-77
2021/06/07 01:43:36;;;;;;;1999.90;999.90;;;15.90;99.90;;;;;;5074501;28;20303;-77
2021/06/07 01:46:03;;;;;;;1999.90;999.90;;;15.90;99.90;;;;;;5076008;28;20179;-77
2021/06/07 01:48:29;;;;;;;1999.90;999.90;;;15.90;99.90;;;;;;5074826;28;20184;-78
2021/06/07 01:50:57;;;;;;;1999.90;999.90;;;16.00;99.90;;;;;;5075543;28;20180;-77
2021/06/07 01:53:24;;;;;;;1999.90;999.90;;;15.80;99.90;;;;;;5069679;28;20204;-77
2021/06/07 01:55:53;;;;;;;1999.90;999.90;;;16.00;99.90;;;;;;5074088;28;20197;-78
2021/06/07 01:58:20;;;;;;;1999.90;999.90;;;15.90;99.90;;;;;;5074879;28;20643;-77
2021/06/07 02:00:58;;;;;;;1999.90;999.90;;;15.90;99.90;;;;;;5074510;28;20183;-77
2021/06/07 02:03:25;;;;;;;1999.90;999.90;;;15.90;99.90;;;;;;5073663;28;20194;-77
2021/06/07 02:05:57;;;;;;;1999.90;999.90;;;15.80;99.90;;;;;;5075549;28;20694;-78
2021/06/07 02:08:24;;;;;;;1999.90;999.90;;;15.80;99.90;;;;;;5075316;28;20226;-78
2021/06/07 02:10:55;;;;;;;1999.90;999.90;;;15.80;99.90;;;;;;5070130;28;20177;-79
2021/06/07 02:13:22;;;;;;;1999.90;999.90;;;15.80;99.90;;;;;;5068477;28;20287;-78
2021/06/07 02:15:58;;;;;;;1999.90;999.90;;;15.80;99.90;;;;;;5072812;28;20534;-78
2021/06/07 02:18:24;;;;;;;1999.90;999.90;;;15.80;99.90;;;;;;5073050;28;20234;-78
2021/06/07 02:20:50;;;;;;;1999.90;999.90;;;15.70;99.90;;;;;;5073746;28;20172;-78
2021/06/07 02:23:16;;;;;;;1999.90;999.90;;;15.70;99.90;;;;;;5074986;28;20199;-78
2021/06/07 02:25:41;;;;;;;1999.90;999.90;;;15.80;99.90;;;;;;5074336;28;20599;-78
2021/06/07 02:28:15;;;;;;;1999.90;999.90;;;15.80;99.90;;;;;;5074474;28;20177;-78
2021/06/07 02:30:41;;;;;;;1999.90;999.90;;;15.80;99.90;;;;;;5073766;28;20191;-78
2021/06/07 02:33:07;;;;;;;1999.90;999.90;;;15.80;99.90;;;;;;5074342;28;20204;-78
2021/06/07 02:35:32;;;;;;;1999.90;999.90;;;15.80;99.90;;;;;;5074313;28;20197;-78
2021/06/07 02:37:59;;;;;;;1999.90;999.90;;;15.80;99.90;;;;;;5074688;28;20569;-78
2021/06/07 02:40:28;;;;;;;1999.90;999.90;;;15.80;99.90;;;;;;5072891;28;20649;-77
2021/06/07 02:42:55;;;;;;;1999.90;999.90;;;15.80;99.90;;;;;;5073501;28;20212;-77
2021/06/07 02:45:23;;;;;;;1999.90;999.90;;;15.80;99.90;;;;;;5074006;28;20177;-77
2021/06/07 02:47:50;;;;;;;1999.90;999.90;;;15.80;99.90;;;;;;5073621;28;20333;-77
2021/06/07 02:50:21;;;;;;;1999.90;999.90;;;15.80;99.90;;;;;;5073035;28;20268;-77
2021/06/07 02:52:47;;;;;;;1999.90;999.90;;;15.80;99.90;;;;;;5074482;28;20209;-77
2021/06/07 02:55:21;;;;;;;1999.90;999.90;;;15.80;99.90;;;;;;5074312;28;20170;-77
2021/06/07 02:57:48;;;;;;;1999.90;999.90;;;15.80;99.90;;;;;;5073021;28;20181;-78
2021/06/07 03:00:18;;;;;;;1999.90;999.90;;;15.80;99.90;;;;;;5074266;28;20201;-78
2021/06/07 03:02:44;;;;;;;1999.90;999.90;;;15.80;99.90;;;;;;5073920;28;20198;-77
2021/06/07 03:05:10;;;;;;;1999.90;999.90;;;15.80;99.90;;;;;;5073463;28;20188;-78
2021/06/07 03:07:36;;;;;;;1999.90;999.90;;;15.80;99.90;;;;;;5073530;28;20268;-79
2021/06/07 03:10:05;;;;;;;1999.90;999.90;;;15.80;99.90;;;;;;5073189;28;20280;-78
2021/06/07 03:12:30;;;;;;;1999.90;999.90;;;15.80;99.90;;;;;;5071203;28;20212;-78
2021/06/07 03:14:56;;;;;;;1999.90;999.90;;;15.70;99.90;;;;;;5069796;28;20678;-77
2021/06/07 03:17:21;;;;;;;1999.90;999.90;;;15.70;99.90;;;;;;5069399;28;20174;-76
2021/06/07 03:19:47;;;;;;;1999.90;999.90;;;15.70;99.90;;;;;;5071006;28;20218;-78
2021/06/07 03:22:13;;;;;;;1999.90;999.90;;;15.70;99.90;;;;;;5071037;28;20224;-77
2021/06/07 03:24:39;;;;;;;1999.90;999.90;;;15.60;99.90;;;;;;5071391;28;20258;-78
2021/06/07 03:27:05;;;;;;;1999.90;999.90;;;15.70;99.90;;;;;;5069511;28;20232;-78
2021/06/07 03:29:31;;;;;;;1999.90;999.90;;;15.60;99.90;;;;;;5070563;28;20185;-77
2021/06/07 03:31:56;;;;;;;1999.90;999.90;;;15.70;99.90;;;;;;5071612;28;20557;-78
2021/06/07 03:34:22;;;;;;;1999.90;999.90;;;15.70;99.90;;;;;;5071230;28;20546;-77
2021/06/07 03:36:47;;;;;;;1999.90;999.90;;;15.70;99.90;;;;;;5072758;28;20649;-77
2021/06/07 03:39:13;;;;;;;1999.90;999.90;;;15.70;99.90;;;;;;5072021;28;20198;-77
2021/06/07 03:41:39;;;;;;;1999.90;999.90;;;15.70;99.90;;;;;;5072235;28;20177;-78
2021/06/07 03:44:04;;;;;;;1999.90;999.90;;;15.70;99.90;;;;;;5070310;28;20334;-77
2021/06/07 03:46:30;;;;;;;1999.90;999.90;;;15.70;99.90;;;;;;5071423;28;20183;-77
2021/06/07 03:48:56;;;;;;;1999.90;999.90;;;15.70;99.90;;;;;;5070894;28;20269;-77
2021/06/07 03:51:21;;;;;;;1999.90;999.90;;;15.70;99.90;;;;;;5069464;28;20178;-77
2021/06/07 03:53:47;;;;;;;1999.90;999.90;;;15.70;99.90;;;;;;5069538;28;20224;-77
2021/06/07 03:56:13;;;;;;;1999.90;999.90;;;15.70;99.90;;;;;;5071461;28;20671;-77
2021/06/07 03:58:38;;;;;;;1999.90;999.90;;;15.70;99.90;;;;;;5070077;28;20177;-78
2021/06/07 04:01:04;;;;;;;1999.90;999.90;;;15.60;99.90;;;;;;5069622;28;20184;-77
2021/06/07 04:03:30;;;;;;;1999.90;999.90;;;15.60;99.90;;;;;;5070631;28;20590;-77
2021/06/07 04:05:56;;;;;;;1999.90;999.90;;;15.70;99.90;;;;;;5066942;28;20683;-78
2021/06/07 04:08:21;;;;;;;1999.90;999.90;;;15.60;99.90;;;;;;5067005;28;20240;-77
2021/06/07 04:10:47;;;;;;;1999.90;999.90;;;15.70;99.90;;;;;;5065261;28;20185;-77
2021/06/07 04:13:14;;;;;;;1999.90;999.90;;;15.60;99.90;;;;;;5068315;28;20208;-78
2021/06/07 04:15:39;;;;;;;1999.90;999.90;;;15.60;99.90;;;;;;5073823;28;20173;-78
2021/06/07 04:18:06;;;;;;;1999.90;999.90;;;15.60;99.90;;;;;;5071969;28;20196;-79
2021/06/07 04:20:33;;;;;;;1999.90;999.90;;;15.70;99.90;;;;;;5069281;28;20177;-76
2021/06/07 04:22:59;;;;;;;1999.90;999.90;;;15.70;99.90;;;;;;5067767;28;20748;-77
2021/06/07 04:25:26;;;;;;;1999.90;999.90;;;15.70;99.90;;;;;;5076690;28;20176;-77
2021/06/07 04:27:53;;;;;;;1999.90;999.90;;;15.70;99.90;;;;;;5063289;28;20220;-77
2021/06/07 04:30:20;;;;;;;1999.90;999.90;;;15.80;99.90;;;;;;5057913;28;20523;-77
2021/06/07 04:32:47;;;;;;;1999.90;999.90;;;15.80;99.90;;;;;;5074549;28;20596;-77
2021/06/07 04:35:15;;;;;;;1999.90;999.90;;;15.80;99.90;;;;;;5076253;28;20200;-77
2021/06/07 04:37:43;;;;;;;1999.90;999.90;;;15.80;99.90;;;;;;5075623;28;20671;-77
2021/06/07 04:40:11;;;;;;;1999.90;999.90;;;15.80;99.90;;;;;;5077294;28;20187;-77
2021/06/07 04:42:38;;;;;;;1999.90;999.90;;;15.90;99.90;;;;;;5073054;28;20758;-77
2021/06/07 04:45:05;;;;;;;1999.90;999.90;;;15.90;99.90;;;;;;5074700;28;20280;-77
2021/06/07 04:47:31;;;;;;;1999.90;999.90;;;15.90;99.90;;;;;;5075070;28;20181;-76
2021/06/07 04:49:56;;;;;;;1999.90;999.90;;;15.90;99.90;;;;;;5074292;28;20190;-77
2021/06/07 04:52:23;;;;;;;1999.90;999.90;;;15.90;99.90;;;;;;5070939;28;20206;-77
2021/06/07 04:54:48;;;;;;;1999.90;999.90;;;15.90;99.90;;;;;;5074103;28;20222;-78
2021/06/07 04:57:14;;;;;;;1999.90;999.90;;;15.90;99.90;;;;;;5076225;28;20186;-77
2021/06/07 04:59:39;;;;;;;1999.90;999.90;;;15.80;99.90;;;;;;5075625;28;20184;-77
2021/06/07 05:02:05;;;;;;;1999.90;999.90;;;15.80;99.90;;;;;;5074813;28;20181;-77
2021/06/07 05:04:31;;;;;;;1999.90;999.90;;;15.80;99.90;;;;;;5076618;28;20174;-77
2021/06/07 05:06:56;;;;;;;1999.90;999.90;;;15.70;99.90;;;;;;5076382;28;20175;-77
2021/06/07 05:09:22;;;;;;;1999.90;999.90;;;15.70;99.90;;;;;;5075617;28;20254;-77
2021/06/07 05:11:48;;;;;;;1999.90;999.90;;;15.80;99.90;;;;;;5075920;28;20287;-77
2021/06/07 05:14:13;;;;;;;1999.90;999.90;;;15.80;99.90;;;;;;5075976;28;20246;-78
2021/06/07 05:16:39;;;;;;;1999.90;999.90;;;15.80;99.90;;;;;;5075348;28;20177;-77
2021/06/07 05:19:04;;;;;;;1999.90;999.90;;;15.80;99.90;;;;;;5074119;28;20185;-78
2021/06/07 05:21:30;;;;;;;1999.90;999.90;;;15.80;99.90;;;;;;5073895;28;20175;-77
2021/06/07 05:23:56;;;;;;;1999.90;999.90;;;15.80;99.90;;;;;;5075473;28;20185;-78
2021/06/07 05:26:22;;;;;;;1999.90;999.90;;;15.80;99.90;;;;;;5075497;28;20252;-78
2021/06/07 05:28:47;;;;;;;1999.90;999.90;;;15.90;99.90;;;;;;5074350;28;20181;-78
2021/06/07 05:31:13;;;;;;;1999.90;999.90;;;15.90;99.90;;;;;;5060858;28;20173;-78
2021/06/07 05:33:39;;;;;;;1999.90;999.90;;;15.80;99.90;;;;;;5072671;28;20201;-78
2021/06/07 05:36:05;;;;;;;1999.90;999.90;;;15.80;99.90;;;;;;5076929;28;20194;-78
2021/06/07 05:38:31;;;;;;;1999.90;999.90;;;15.70;99.90;;;;;;5075183;28;20173;-78
2021/06/07 05:40:58;;;;;;;1999.90;999.90;;;15.70;99.90;;;;;;5076425;28;20227;-79
2021/06/07 05:43:24;;;;;;;1999.90;999.90;;;15.70;99.90;;;;;;5077499;28;20594;-80
2021/06/07 05:45:51;;;;;;;1999.90;999.90;;;15.80;99.90;;;;;;5075534;28;20173;-81
2021/06/07 05:48:17;;;;;;;1999.90;999.90;;;15.80;99.90;;;;;;5077107;28;20178;-80
2021/06/07 05:50:44;;;;;;;1999.90;999.90;;;15.90;99.90;;;;;;5076987;28;20260;-79
2021/06/07 05:53:12;;;;;;;1999.90;999.90;;;15.90;99.90;;;;;;5077173;28;20294;-80
2021/06/07 05:55:41;;;;;;;1999.90;999.90;;;15.90;99.90;;;;;;5078217;28;20655;-80
2021/06/07 05:58:10;;;;;;;1999.90;999.90;;;15.90;99.90;;;;;;5077781;28;20632;-79
2021/06/07 06:00:39;;;;;;;1999.90;999.90;;;15.90;99.90;;;;;;5076896;28;20178;-80
2021/06/07 06:03:06;;;;;;;1999.90;999.90;;;15.90;99.90;;;;;;5077894;28;20197;-80
2021/06/07 06:05:32;;;;;;;1999.90;999.90;;;15.90;99.90;;;;;;5077894;28;20173;-80
2021/06/07 06:07:58;;;;;;;1999.90;999.90;;;16.00;99.90;;;;;;5076464;28;20196;-81
2021/06/07 06:10:23;;;;;;;1999.90;999.90;;;16.00;99.90;;;;;;5077790;28;20178;-80
2021/06/07 06:12:49;;;;;;;1999.90;999.90;;;16.00;99.90;;;;;;5077061;28;20216;-80
2021/06/07 06:15:20;;;;;;;1999.90;999.90;;;16.00;99.90;;;;;;5077824;28;20530;-80
2021/06/07 06:17:46;;;;;;;1999.90;999.90;;;16.00;99.90;;;;;;5078407;28;20176;-80
2021/06/07 06:20:13;;;;;;;1999.90;999.90;;;16.00;99.90;;;;;;5076499;28;20195;-80
2021/06/07 06:22:38;;;;;;;1999.90;999.90;;;16.00;99.90;;;;;;5077700;28;20254;-80
2021/06/07 06:25:07;;;;;;;1999.90;999.90;;;16.00;99.90;;;;;;5077648;28;20188;-80
2021/06/07 06:27:33;;;;;;;1999.90;999.90;;;16.00;99.90;;;;;;5077719;28;20548;-80
2021/06/07 06:29:59;;;;;;;1999.90;999.90;;;16.00;99.90;;;;;;5077561;28;20185;-80
2021/06/07 06:32:25;;;;;;;1999.90;999.90;;;16.00;99.90;;;;;;5077637;28;20768;-80
2021/06/07 06:34:50;;;;;;;1999.90;999.90;;;16.10;99.90;;;;;;5077801;28;20254;-80
2021/06/07 06:37:16;;;;;;;1999.90;999.90;;;16.00;99.90;;;;;;5077258;28;20211;-79
2021/06/07 06:39:42;;;;;;;1999.90;999.90;;;16.10;99.90;;;;;;5076044;28;20551;-79
2021/06/07 06:42:08;;;;;;;1999.90;999.90;;;16.10;99.90;;;;;;5076844;28;20541;-79
2021/06/07 06:44:34;;;;;;;1999.90;999.90;;;16.10;99.90;;;;;;5076588;28;20240;-79
2021/06/07 06:47:00;;;;;;;1999.90;999.90;;;16.10;99.90;;;;;;5076874;28;20177;-79
2021/06/07 06:49:26;;;;;;;1999.90;999.90;;;16.20;99.90;;;;;;5075578;28;20184;-79
2021/06/07 06:51:52;;;;;;;1999.90;999.90;;;16.20;99.90;;;;;;5075618;28;20201;-79
2021/06/07 06:54:17;;;;;;;1999.90;999.90;;;16.20;99.90;;;;;;5077329;28;20177;-79
2021/06/07 06:56:43;;;;;;;1999.90;999.90;;;16.30;99.90;;;;;;5076907;28;20252;-80
2021/06/07 06:59:09;;;;;;;1999.90;999.90;;;16.30;99.90;;;;;;5075390;28;20264;-80
2021/06/07 07:01:34;;;;;;;1999.90;999.90;;;16.20;99.90;;;;;;5075904;28;20184;-80
2021/06/07 07:04:00;;;;;;;1999.90;999.90;;;16.30;99.90;;;;;;5075700;28;20200;-80
2021/06/07 07:06:26;;;;;;;1999.90;999.90;;;16.40;99.90;;;;;;5075450;28;20174;-80
2021/06/07 07:08:54;;;;;;;1999.90;999.90;;;16.40;99.90;;;;;;5076716;28;20169;-79
2021/06/07 07:11:21;;;;;;;1999.90;999.90;;;16.40;99.90;;;;;;5076693;28;20171;-80
2021/06/07 07:13:47;;;;;;;1999.90;999.90;;;16.40;99.90;;;;;;5076284;28;20197;-79
2021/06/07 07:16:13;;;;;;;1999.90;999.90;;;16.50;99.90;;;;;;5076451;28;20537;-80
2021/06/07 07:18:38;;;;;;;1999.90;999.90;;;16.50;99.90;;;;;;5076204;28;20231;-79
2021/06/07 07:21:04;;;;;;;1999.90;999.90;;;16.50;99.90;;;;;;5076560;28;20166;-80
2021/06/07 07:23:30;;;;;;;1999.90;999.90;;;16.50;99.90;;;;;;5076574;28;21643;-80
2021/06/07 07:25:56;;;;;;;1999.90;999.90;;;16.50;99.90;;;;;;5076245;28;20181;-80
2021/06/07 07:28:22;;;;;;;1999.90;999.90;;;16.50;99.90;;;;;;5076516;28;20520;-80
2021/06/07 07:30:48;;;;;;;1999.90;999.90;;;16.50;99.90;;;;;;5075305;28;20181;-80
2021/06/07 07:33:14;;;;;;;1999.90;999.90;;;16.50;99.90;;;;;;5076761;28;20215;-80
2021/06/07 07:35:40;;;;;;;1999.90;999.90;;;16.50;99.90;;;;;;5076697;28;20250;-80
2021/06/07 07:38:06;;;;;;;1999.90;999.90;;;16.60;99.90;;;;;;5076465;28;20195;-80
2021/06/07 07:40:32;;;;;;;1999.90;999.90;;;16.60;99.90;;;;;;5076829;28;20221;-79
2021/06/07 07:42:58;;;;;;;1999.90;999.90;;;16.60;99.90;;;;;;5076717;28;20621;-80
2021/06/07 07:45:27;;;;;;;1999.90;999.90;;;16.60;99.90;;;;;;5102526;22;20224;-82
2021/06/07 07:47:58;;;;;;;1999.90;999.90;;;16.60;99.90;;;;;;5041734;28;20195;-81
2021/06/07 07:50:25;;;;;;;1999.90;999.90;;;16.60;99.90;;;;;;5046750;28;20222;-84
2021/06/07 07:52:51;;;;;;;1999.90;999.90;;;16.60;99.90;;;;;;5037239;28;20606;-81
2021/06/07 07:55:21;;;;;;;1999.90;999.90;;;16.60;99.90;;;;;;5064614;28;20186;-81
2021/06/07 07:57:50;;;;;;;1999.90;999.90;;;16.50;99.90;;;;;;5085179;28;20687;-82
2021/06/07 08:00:17;;;;;;;1999.90;999.90;;;16.50;99.90;;;;;;5057073;28;20171;-81
2021/06/07 08:02:43;;;;;;;1999.90;999.90;;;16.60;99.90;;;;;;5051808;28;20165;-81
2021/06/07 08:05:10;;;;;;;1999.90;999.90;;;16.50;99.90;;;;;;5053276;28;20189;-82
2021/06/07 08:07:36;;;;;;;1999.90;999.90;;;16.50;99.90;;;;;;5055507;28;20197;-81
2021/06/07 08:10:02;;;;;;;1999.90;999.90;;;16.50;99.90;;;;;;5065045;28;20209;-83
2021/06/07 08:12:28;;;;;;;1999.90;999.90;;;16.50;99.90;;;;;;5065263;28;20193;-82
2021/06/07 08:14:53;;;;;;;1999.90;999.90;;;16.50;99.90;;;;;;5046896;28;20187;-83
2021/06/07 08:17:20;;;;;;;1999.90;999.90;;;16.60;99.90;;;;;;5064866;28;20177;-82
2021/06/07 08:19:45;;;;;;;1999.90;999.90;;;16.60;99.90;;;;;;5078914;28;20197;-81
2021/06/07 08:22:12;;;;;;;1999.90;999.90;;;16.60;99.90;;;;;;5064569;28;20183;-81
2021/06/07 08:24:38;;;;;;;1999.90;999.90;;;16.60;99.90;;;;;;5065189;28;20224;-82
2021/06/07 08:27:05;;;;;;;1999.90;999.90;;;16.60;99.90;;;;;;5065061;28;20181;-81
2021/06/07 08:29:31;;;;;;;1999.90;999.90;;;16.60;99.90;;;;;;5046938;28;20204;-81
2021/06/07 08:31:57;;;;;;;1999.90;999.90;;;16.70;99.90;;;;;;5047641;28;20610;-81
2021/06/07 08:34:23;;;;;;;1999.90;999.90;;;16.70;99.90;;;;;;5065010;28;20168;-81
2021/06/07 08:36:49;;;;;;;1999.90;999.90;;;16.70;99.90;;;;;;5060816;28;20553;-81
2021/06/07 08:39:15;;;;;;;1999.90;999.90;;;16.70;99.90;;;;;;5047125;28;20174;-81
2021/06/07 08:41:40;;;;;;;1999.90;999.90;;;16.70;99.90;;;;;;5059710;28;20183;-81
2021/06/07 08:44:06;;;;;;;1999.90;999.90;;;16.70;99.90;;;;;;5067288;28;20239;-84
2021/06/07 08:46:32;;;;;;;1999.90;999.90;;;16.70;99.90;;;;;;5056720;28;20214;-84
2021/06/07 08:48:58;;;;;;;1999.90;999.90;;;16.70;99.90;;;;;;5064601;28;20685;-82
2021/06/07 08:51:24;;;;;;;1999.90;999.90;;;16.70;99.90;;;;;;5054956;28;20198;-82
2021/06/07 08:53:51;;;;;;;1999.90;999.90;;;16.70;99.90;;;;;;5070368;28;20519;-83
2021/06/07 08:56:17;;;;;;;1999.90;999.90;;;16.80;99.90;;;;;;5054295;28;20198;-82
2021/06/07 08:58:43;;;;;;;1999.90;999.90;;;16.80;99.90;;;;;;5073631;28;20639;-82
2021/06/07 09:01:10;;;;;;;1999.90;999.90;;;16.80;99.90;;;;;;5069905;28;20166;-83
2021/06/07 09:03:36;;;;;;;1999.90;999.90;;;16.80;99.90;;;;;;5064200;28;20547;-83
2021/06/07 09:06:04;;;;;;;1999.90;999.90;;;16.80;99.90;;;;;;5084578;28;20633;-82
2021/06/07 09:08:34;;;;;;;1999.90;999.90;;;16.80;99.90;;;;;;5066824;28;20651;-82
2021/06/07 09:11:09;;;;;;;1999.90;999.90;;;16.80;99.90;;;;;;5060214;28;20558;-83
2021/06/07 09:13:35;;;;;;;1999.90;999.90;;;16.90;99.90;;;;;;5048863;28;20241;-82
2021/06/07 09:16:02;;;;;;;1999.90;999.90;;;16.90;99.90;;;;;;5077031;28;20253;-83
2021/06/07 09:18:30;;;;;;;1999.90;999.90;;;16.90;99.90;;;;;;5038306;28;20174;-84
2021/06/07 09:21:02;;;;;;;1999.90;999.90;;;17.00;99.90;;;;;;5087262;28;20193;-83
2021/06/07 09:24:04;;;;;;;1999.90;999.90;;;17.00;99.90;;;;;;5072631;28;20590;-83
2021/06/07 09:26:36;;;;;;;1999.90;999.90;;;17.10;99.90;;;;;;5025198;28;20214;-82
2021/06/07 09:29:08;;;;;;;1999.90;999.90;;;17.20;99.90;;;;;;5033976;28;20180;-82
2021/06/07 09:31:44;;;;;;;1999.90;999.90;;;17.30;99.90;;;;;;5063851;28;20521;-82
2021/06/07 09:34:12;;;;;;;1999.90;999.90;;;17.40;99.90;;;;;;5054920;28;20175;-82
2021/06/07 09:36:44;;;;;;;1999.90;999.90;;;17.50;99.90;;;;;;5052263;28;20196;-82
2021/06/07 09:39:17;;;;;;;1999.90;999.90;;;17.50;99.90;;;;;;5046476;28;20175;-82
2021/06/07 09:41:58;;;;;;;1999.90;999.90;;;17.50;99.90;;;;;;5045239;28;20171;-82
2021/06/07 09:44:31;;;;;;;1999.90;999.90;;;17.50;99.90;;;;;;5057305;28;20174;-83
2021/06/07 09:47:31;;;;;;;1999.90;999.90;;;17.50;99.90;;;;;;5065545;28;20182;-82
2021/06/07 09:50:21;;;;;;;1999.90;999.90;;;17.70;99.90;;;;;;5072356;28;20162;-83
2021/06/07 09:52:55;;;;;;;1999.90;999.90;;;17.80;99.90;;;;;;5077211;28;20186;-82
2021/06/07 09:55:23;;;;;;;1999.90;999.90;;;18.00;99.90;;;;;;5075389;28;20200;-82
2021/06/07 09:57:51;;;;;;;1999.90;999.90;;;18.30;99.90;;;;;;5052502;28;20261;-82
2021/06/07 10:00:41;;;;;;;1999.90;999.90;;;18.30;99.90;;;;;;5070843;28;20238;-82
2021/06/07 10:03:42;;;;;;;1999.90;999.90;;;18.40;99.90;;;;;;5053148;28;20221;-83
2021/06/07 10:06:34;;;;;;;1999.90;999.90;;;18.50;99.90;;;;;;5075739;28;20200;-82
2021/06/07 10:09:03;;;;;;;1999.90;999.90;;;18.60;99.90;;;;;;5051527;28;20537;-83
2021/06/07 10:11:37;;;;;;;1999.90;999.90;;;18.60;99.90;;;;;;5077525;28;20230;-82
2021/06/07 10:14:18;;;;;;;1999.90;999.90;;;18.70;99.90;;;;;;5081785;28;20193;-82
2021/06/07 10:16:54;;;;;;;1999.90;999.90;;;18.80;99.90;;;;;;5068462;28;20187;-83
2021/06/07 10:19:30;;;;;;;1999.90;999.90;;;19.00;99.90;;;;;;5081957;28;20174;-82
2021/06/07 10:21:55;;;;;;;1999.90;999.90;;;19.20;99.90;;;;;;5064168;28;20172;-82
2021/06/07 10:24:22;;;;;;;1999.90;999.90;;;19.20;99.90;;;;;;5054806;28;20723;-82
2021/06/07 10:26:47;;;;;;;1999.90;999.90;;;19.10;99.90;;;;;;5044337;28;20185;-84
2021/06/07 10:29:13;;;;;;;1999.90;999.90;;;19.20;99.90;;;;;;5043830;28;20204;-83
2021/06/07 10:31:40;;;;;;;1999.90;999.90;;;19.10;99.90;;;;;;5061865;28;20192;-82
2021/06/07 10:34:08;;;;;;;1999.90;999.90;;;19.10;99.90;;;;;;5057861;28;20230;-82
2021/06/07 10:36:43;;;;;;;1999.90;999.90;;;19.10;99.90;;;;;;5061228;28;20196;-80
2021/06/07 10:39:09;;;;;;;1999.90;999.90;;;19.20;99.90;;;;;;5064289;28;20647;-82
2021/06/07 10:41:35;;;;;;;1999.90;999.90;;;19.20;99.90;;;;;;5082212;28;20211;-83
2021/06/07 10:44:01;;;;;;;1999.90;999.90;;;19.30;99.90;;;;;;5064718;28;20177;-83
2021/06/07 10:46:29;;;;;;;1999.90;999.90;;;19.40;99.90;;;;;;5082655;28;20670;-82
2021/06/07 10:48:59;;;;;;;1999.90;999.90;;;19.50;99.90;;;;;;5069133;28;20173;-83
2021/06/07 10:52:24;;;;;;;1999.90;999.90;;;19.40;99.90;;;;;;5073950;28;20174;-82
2021/06/07 10:54:55;;;;;;;1999.90;999.90;;;19.50;99.90;;;;;;5000630;28;20240;-82
2021/06/07 10:57:37;;;;;;;1999.90;999.90;;;19.60;99.90;;;;;;5067761;28;20281;-83
2021/06/07 11:00:31;;;;;;;1999.90;999.90;;;19.50;99.90;;;;;;5064331;28;20166;-82
2021/06/07 11:03:04;;;;;;;1999.90;999.90;;;19.50;99.90;;;;;;5031241;28;20180;-82
2021/06/07 11:05:32;;;;;;;1999.90;999.90;;;19.40;99.90;;;;;;5063153;28;20551;-82
2021/06/07 11:08:07;;;;;;;1999.90;999.90;;;19.40;99.90;;;;;;5045579;28;20180;-83
2021/06/07 11:10:40;;;;;;;1999.90;999.90;;;19.40;99.90;;;;;;5075212;28;20173;-85
2021/06/07 11:13:14;;;;;;;1999.90;999.90;;;19.40;99.90;;;;;;5075023;28;20197;-84
2021/06/07 11:16:01;;;;;;;1999.90;999.90;;;19.40;99.90;;;;;;5066743;28;20199;-84
2021/06/07 11:18:31;;;;;;;1999.90;999.90;;;19.30;99.90;;;;;;5071112;28;20184;-84
2021/06/07 11:21:07;;;;;;;1999.90;999.90;;;19.30;99.90;;;;;;5060339;28;20717;-83
2021/06/07 11:23:38;;;;;;;1999.90;999.90;;;19.20;99.90;;;;;;5079910;28;20172;-85
2021/06/07 11:26:07;;;;;;;1999.90;999.90;;;19.20;99.90;;;;;;5075816;28;20186;-85
2021/06/07 11:28:40;;;;;;;1999.90;999.90;;;19.30;99.90;;;;;;5057944;28;20303;-85
2021/06/07 11:31:34;;;;;;;1999.90;999.90;;;19.40;99.90;;;;;;5054879;28;20180;-83
2021/06/07 11:34:11;;;;;;;1999.90;999.90;;;19.40;99.90;;;;;;5058587;28;20255;-85
2021/06/07 11:36:49;;;;;;;1999.90;999.90;;;19.60;99.90;;;;;;5056696;28;20185;-84
2021/06/07 11:39:25;;;;;;;1999.90;999.90;;;19.70;99.90;;;;;;5065748;28;20174;-83
2021/06/07 11:41:59;;;;;;;1999.90;999.90;;;19.80;99.90;;;;;;5062570;28;20178;-84
2021/06/07 11:44:46;;;;;;;1999.90;999.90;;;19.80;99.90;;;;;;5059488;28;20187;-83
2021/06/07 11:47:15;;;;;;;1999.90;999.90;;;19.80;99.90;;;;;;5068159;28;20579;-85
2021/06/07 11:49:56;;;;;;;1999.90;999.90;;;19.50;99.90;;;;;;5056268;28;20185;-86
2021/06/07 11:52:49;;;;;;;1999.90;999.90;;;19.40;99.90;;;;;;5058249;28;20197;-85
2021/06/07 11:55:21;;;;;;;1999.90;999.90;;;19.10;99.90;;;;;;5056219;28;20208;-86
2021/06/07 11:57:48;;;;;;;1999.90;999.90;;;19.00;99.90;;;;;;5057969;28;20169;-85
2021/06/07 12:00:16;;;;;;;1999.90;999.90;;;19.10;99.90;;;;;;5061197;28;20180;-84
2021/06/07 12:02:42;;;;;;;1999.90;999.90;;;19.00;99.90;;;;;;5043051;28;20590;-82
2021/06/07 12:05:11;;;;;;;1999.90;999.90;;;19.10;99.90;;;;;;5044118;28;20212;-83